sensor_id;sensor_type;location;lat;lon;timestamp;P1;durP1;ratioP1;P2;durP2;ratioP2
71104;SDS011;58760;48.716;8.962;2022-11-15T00:00:32;5.80;;;2.60;;
71104;SDS011;58760;48.716;8.962;2022-11-15T00:02:58;6.22;;;2.70;;
71104;SDS011;58760;48.716;8.962;2022-11-15T00:05:23;8.50;;;2.80;;
71104;SDS011;58760;48.716;8.962;2022-11-15T00:07:49;7.55;;;2.55;;
71104;SDS011;58760;48.716;8.962;2022-11-15T00:10:15;5.75;;;2.45;;
71104;SDS011;58760;48.716;8.962;2022-11-15T00:12:41;6.13;;;2.38;;
71104;SDS011;58760;48.716;8.962;2022-11-15T00:15:06;5.95;;;2.53;;
71104;SDS011;58760;48.716;8.962;2022-11-15T00:17:32;8.90;;;2.28;;
71104;SDS011;58760;48.716;8.962;2022-11-15T00:19:58;5.93;;;2.47;;
71104;SDS011;58760;48.716;8.962;2022-11-15T00:22:23;6.65;;;2.33;;
71104;SDS011;58760;48.716;8.962;2022-11-15T00:24:48;6.18;;;2.22;;
71104;SDS011;58760;48.716;8.962;2022-11-15T00:27:14;8.27;;;2.38;;
71104;SDS011;58760;48.716;8.962;2022-11-15T00:29:39;9.35;;;2.75;;
71104;SDS011;58760;48.716;8.962;2022-11-15T00:32:08;8.20;;;2.67;;
71104;SDS011;58760;48.716;8.962;2022-11-15T00:34:35;5.20;;;1.90;;
71104;SDS011;58760;48.716;8.962;2022-11-15T00:37:00;6.68;;;2.50;;
71104;SDS011;58760;48.716;8.962;2022-11-15T00:39:26;7.18;;;2.25;;
71104;SDS011;58760;48.716;8.962;2022-11-15T00:41:51;5.80;;;2.20;;
71104;SDS011;58760;48.716;8.962;2022-11-15T00:44:16;6.22;;;2.35;;
71104;SDS011;58760;48.716;8.962;2022-11-15T00:46:42;6.15;;;2.00;;
71104;SDS011;58760;48.716;8.962;2022-11-15T00:49:07;5.38;;;1.90;;
71104;SDS011;58760;48.716;8.962;2022-11-15T00:51:32;5.07;;;2.05;;
71104;SDS011;58760;48.716;8.962;2022-11-15T00:53:58;6.30;;;2.15;;
71104;SDS011;58760;48.716;8.962;2022-11-15T00:56:23;7.80;;;2.42;;
71104;SDS011;58760;48.716;8.962;2022-11-15T00:58:49;5.93;;;2.15;;
71104;SDS011;58760;48.716;8.962;2022-11-15T01:01:14;6.03;;;2.45;;
71104;SDS011;58760;48.716;8.962;2022-11-15T01:03:40;5.70;;;2.60;;
71104;SDS011;58760;48.716;8.962;2022-11-15T01:06:06;6.32;;;2.13;;
71104;SDS011;58760;48.716;8.962;2022-11-15T01:08:32;7.53;;;2.47;;
71104;SDS011;58760;48.716;8.962;2022-11-15T01:11:02;7.13;;;2.40;;
71104;SDS011;58760;48.716;8.962;2022-11-15T01:13:33;9.00;;;3.00;;
71104;SDS011;58760;48.716;8.962;2022-11-15T01:16:05;6.07;;;2.33;;
71104;SDS011;58760;48.716;8.962;2022-11-15T01:18:31;6.45;;;2.60;;
71104;SDS011;58760;48.716;8.962;2022-11-15T01:20:56;6.18;;;2.22;;
71104;SDS011;58760;48.716;8.962;2022-11-15T01:23:22;8.35;;;2.67;;
71104;SDS011;58760;48.716;8.962;2022-11-15T01:25:47;5.47;;;2.15;;
71104;SDS011;58760;48.716;8.962;2022-11-15T01:28:12;7.25;;;2.55;;
71104;SDS011;58760;48.716;8.962;2022-11-15T01:30:38;6.15;;;2.28;;
71104;SDS011;58760;48.716;8.962;2022-11-15T01:33:03;7.13;;;3.13;;
71104;SDS011;58760;48.716;8.962;2022-11-15T01:35:29;5.45;;;2.15;;
71104;SDS011;58760;48.716;8.962;2022-11-15T01:37:54;7.15;;;2.58;;
71104;SDS011;58760;48.716;8.962;2022-11-15T01:40:19;5.95;;;2.17;;
71104;SDS011;58760;48.716;8.962;2022-11-15T01:42:45;5.75;;;2.53;;
71104;SDS011;58760;48.716;8.962;2022-11-15T01:45:14;5.60;;;2.22;;
71104;SDS011;58760;48.716;8.962;2022-11-15T01:47:42;5.45;;;2.10;;
71104;SDS011;58760;48.716;8.962;2022-11-15T01:50:17;6.38;;;2.30;;
71104;SDS011;58760;48.716;8.962;2022-11-15T01:52:47;6.38;;;2.00;;
71104;SDS011;58760;48.716;8.962;2022-11-15T01:57:38;5.28;;;1.90;;
71104;SDS011;58760;48.716;8.962;2022-11-15T02:00:06;5.28;;;2.13;;
71104;SDS011;58760;48.716;8.962;2022-11-15T02:02:33;8.63;;;2.20;;
71104;SDS011;58760;48.716;8.962;2022-11-15T02:05:01;6.35;;;2.17;;
71104;SDS011;58760;48.716;8.962;2022-11-15T02:07:27;4.72;;;2.20;;
71104;SDS011;58760;48.716;8.962;2022-11-15T02:09:55;5.63;;;2.00;;
71104;SDS011;58760;48.716;8.962;2022-11-15T02:12:24;9.60;;;2.33;;
71104;SDS011;58760;48.716;8.962;2022-11-15T02:14:51;8.18;;;2.40;;
71104;SDS011;58760;48.716;8.962;2022-11-15T02:17:34;7.88;;;2.40;;
71104;SDS011;58760;48.716;8.962;2022-11-15T02:25:59;6.18;;;2.00;;
71104;SDS011;58760;48.716;8.962;2022-11-15T02:28:51;4.30;;;2.13;;
71104;SDS011;58760;48.716;8.962;2022-11-15T02:31:36;5.78;;;2.30;;
71104;SDS011;58760;48.716;8.962;2022-11-15T02:37:02;6.05;;;2.58;;
71104;SDS011;58760;48.716;8.962;2022-11-15T02:39:41;5.75;;;2.40;;
71104;SDS011;58760;48.716;8.962;2022-11-15T02:42:35;5.60;;;2.17;;
71104;SDS011;58760;48.716;8.962;2022-11-15T02:45:27;7.15;;;2.08;;
71104;SDS011;58760;48.716;8.962;2022-11-15T02:47:56;5.32;;;2.33;;
71104;SDS011;58760;48.716;8.962;2022-11-15T02:50:25;5.68;;;2.20;;
71104;SDS011;58760;48.716;8.962;2022-11-15T02:52:54;4.53;;;2.30;;
71104;SDS011;58760;48.716;8.962;2022-11-15T02:55:38;6.38;;;2.38;;
71104;SDS011;58760;48.716;8.962;2022-11-15T03:00:55;5.97;;;2.28;;
71104;SDS011;58760;48.716;8.962;2022-11-15T03:03:32;5.53;;;2.33;;
71104;SDS011;58760;48.716;8.962;2022-11-15T03:06:03;6.18;;;2.67;;
71104;SDS011;58760;48.716;8.962;2022-11-15T03:09:09;6.38;;;2.10;;
71104;SDS011;58760;48.716;8.962;2022-11-15T03:11:47;5.07;;;2.13;;
71104;SDS011;58760;48.716;8.962;2022-11-15T03:19:59;6.68;;;2.20;;
71104;SDS011;58760;48.716;8.962;2022-11-15T03:22:28;6.15;;;2.25;;
71104;SDS011;58760;48.716;8.962;2022-11-15T03:24:59;5.00;;;2.22;;
71104;SDS011;58760;48.716;8.962;2022-11-15T03:27:28;6.43;;;2.40;;
71104;SDS011;58760;48.716;8.962;2022-11-15T03:30:05;5.32;;;2.20;;
71104;SDS011;58760;48.716;8.962;2022-11-15T03:32:43;6.93;;;2.78;;
71104;SDS011;58760;48.716;8.962;2022-11-15T03:35:12;6.13;;;2.17;;
71104;SDS011;58760;48.716;8.962;2022-11-15T03:40:11;5.78;;;2.20;;
71104;SDS011;58760;48.716;8.962;2022-11-15T03:42:59;8.23;;;2.20;;
71104;SDS011;58760;48.716;8.962;2022-11-15T03:45:51;5.40;;;2.35;;
71104;SDS011;58760;48.716;8.962;2022-11-15T03:48:32;7.60;;;2.40;;
71104;SDS011;58760;48.716;8.962;2022-11-15T03:51:02;5.35;;;2.13;;
71104;SDS011;58760;48.716;8.962;2022-11-15T03:53:29;5.85;;;2.20;;
71104;SDS011;58760;48.716;8.962;2022-11-15T03:55:55;4.97;;;2.03;;
71104;SDS011;58760;48.716;8.962;2022-11-15T03:58:21;4.95;;;2.08;;
71104;SDS011;58760;48.716;8.962;2022-11-15T04:00:46;6.20;;;2.28;;
71104;SDS011;58760;48.716;8.962;2022-11-15T04:03:11;4.93;;;2.13;;
71104;SDS011;58760;48.716;8.962;2022-11-15T04:05:36;5.53;;;2.20;;
71104;SDS011;58760;48.716;8.962;2022-11-15T04:08:02;7.18;;;2.50;;
71104;SDS011;58760;48.716;8.962;2022-11-15T04:10:27;6.63;;;2.30;;
71104;SDS011;58760;48.716;8.962;2022-11-15T04:12:53;5.80;;;2.00;;
71104;SDS011;58760;48.716;8.962;2022-11-15T04:15:19;5.03;;;2.00;;
71104;SDS011;58760;48.716;8.962;2022-11-15T04:17:48;4.85;;;2.05;;
71104;SDS011;58760;48.716;8.962;2022-11-15T04:20:17;5.30;;;2.17;;
71104;SDS011;58760;48.716;8.962;2022-11-15T04:23:08;6.53;;;2.13;;
71104;SDS011;58760;48.716;8.962;2022-11-15T04:25:54;6.72;;;2.25;;
71104;SDS011;58760;48.716;8.962;2022-11-15T04:28:21;4.55;;;1.88;;
71104;SDS011;58760;48.716;8.962;2022-11-15T04:30:47;6.22;;;2.00;;
71104;SDS011;58760;48.716;8.962;2022-11-15T04:33:13;7.95;;;2.53;;
71104;SDS011;58760;48.716;8.962;2022-11-15T04:35:38;5.53;;;2.22;;
71104;SDS011;58760;48.716;8.962;2022-11-15T04:38:04;5.30;;;2.10;;
71104;SDS011;58760;48.716;8.962;2022-11-15T04:40:31;10.02;;;2.30;;
71104;SDS011;58760;48.716;8.962;2022-11-15T04:42:57;6.13;;;2.30;;
71104;SDS011;58760;48.716;8.962;2022-11-15T04:45:22;6.72;;;2.20;;
71104;SDS011;58760;48.716;8.962;2022-11-15T04:47:48;4.93;;;2.08;;
71104;SDS011;58760;48.716;8.962;2022-11-15T04:50:14;8.32;;;2.50;;
71104;SDS011;58760;48.716;8.962;2022-11-15T04:52:44;5.95;;;2.33;;
71104;SDS011;58760;48.716;8.962;2022-11-15T04:55:16;5.43;;;2.15;;
71104;SDS011;58760;48.716;8.962;2022-11-15T04:57:41;6.68;;;2.20;;
71104;SDS011;58760;48.716;8.962;2022-11-15T05:00:08;8.43;;;2.30;;
71104;SDS011;58760;48.716;8.962;2022-11-15T05:02:35;7.40;;;2.20;;
71104;SDS011;58760;48.716;8.962;2022-11-15T05:05:20;5.45;;;2.40;;
71104;SDS011;58760;48.716;8.962;2022-11-15T05:07:45;6.80;;;2.38;;
71104;SDS011;58760;48.716;8.962;2022-11-15T05:10:10;5.60;;;2.20;;
71104;SDS011;58760;48.716;8.962;2022-11-15T05:12:36;4.75;;;2.08;;
71104;SDS011;58760;48.716;8.962;2022-11-15T05:15:02;7.15;;;2.20;;
71104;SDS011;58760;48.716;8.962;2022-11-15T05:17:27;5.32;;;2.17;;
71104;SDS011;58760;48.716;8.962;2022-11-15T05:19:53;5.35;;;1.85;;
71104;SDS011;58760;48.716;8.962;2022-11-15T05:22:18;6.30;;;2.00;;
71104;SDS011;58760;48.716;8.962;2022-11-15T05:24:44;6.28;;;2.10;;
71104;SDS011;58760;48.716;8.962;2022-11-15T05:27:09;7.47;;;2.20;;
71104;SDS011;58760;48.716;8.962;2022-11-15T05:29:35;4.72;;;2.17;;
71104;SDS011;58760;48.716;8.962;2022-11-15T05:32:00;7.47;;;2.25;;
71104;SDS011;58760;48.716;8.962;2022-11-15T05:34:26;6.32;;;2.10;;
71104;SDS011;58760;48.716;8.962;2022-11-15T05:36:51;5.15;;;2.20;;
71104;SDS011;58760;48.716;8.962;2022-11-15T05:39:17;4.93;;;2.03;;
71104;SDS011;58760;48.716;8.962;2022-11-15T05:41:44;7.53;;;2.20;;
71104;SDS011;58760;48.716;8.962;2022-11-15T05:44:14;5.47;;;2.17;;
71104;SDS011;58760;48.716;8.962;2022-11-15T05:46:43;7.90;;;2.30;;
71104;SDS011;58760;48.716;8.962;2022-11-15T05:49:10;5.95;;;2.30;;
71104;SDS011;58760;48.716;8.962;2022-11-15T05:51:40;6.00;;;2.25;;
71104;SDS011;58760;48.716;8.962;2022-11-15T05:54:09;5.72;;;2.17;;
71104;SDS011;58760;48.716;8.962;2022-11-15T05:56:35;6.57;;;2.20;;
71104;SDS011;58760;48.716;8.962;2022-11-15T05:59:01;5.72;;;2.08;;
71104;SDS011;58760;48.716;8.962;2022-11-15T06:01:27;5.63;;;2.20;;
71104;SDS011;58760;48.716;8.962;2022-11-15T06:03:52;6.07;;;2.15;;
71104;SDS011;58760;48.716;8.962;2022-11-15T06:06:18;8.27;;;2.55;;
71104;SDS011;58760;48.716;8.962;2022-11-15T06:08:43;5.30;;;2.05;;
71104;SDS011;58760;48.716;8.962;2022-11-15T06:11:08;4.47;;;2.03;;
71104;SDS011;58760;48.716;8.962;2022-11-15T06:13:34;6.65;;;2.00;;
71104;SDS011;58760;48.716;8.962;2022-11-15T06:15:59;5.20;;;2.22;;
71104;SDS011;58760;48.716;8.962;2022-11-15T06:18:25;6.03;;;2.28;;
71104;SDS011;58760;48.716;8.962;2022-11-15T06:20:51;8.05;;;2.20;;
71104;SDS011;58760;48.716;8.962;2022-11-15T06:23:19;6.20;;;2.40;;
71104;SDS011;58760;48.716;8.962;2022-11-15T06:25:45;5.80;;;2.45;;
71104;SDS011;58760;48.716;8.962;2022-11-15T06:28:10;6.43;;;1.92;;
71104;SDS011;58760;48.716;8.962;2022-11-15T06:30:35;7.30;;;1.98;;
71104;SDS011;58760;48.716;8.962;2022-11-15T06:33:01;5.50;;;2.15;;
71104;SDS011;58760;48.716;8.962;2022-11-15T06:35:29;5.18;;;1.92;;
71104;SDS011;58760;48.716;8.962;2022-11-15T06:37:55;6.72;;;2.40;;
71104;SDS011;58760;48.716;8.962;2022-11-15T06:40:20;5.28;;;2.20;;
71104;SDS011;58760;48.716;8.962;2022-11-15T06:42:46;5.15;;;2.08;;
71104;SDS011;58760;48.716;8.962;2022-11-15T06:45:11;6.82;;;2.58;;
71104;SDS011;58760;48.716;8.962;2022-11-15T06:47:43;5.45;;;2.25;;
71104;SDS011;58760;48.716;8.962;2022-11-15T06:50:12;10.02;;;2.50;;
71104;SDS011;58760;48.716;8.962;2022-11-15T06:52:38;5.20;;;2.13;;
71104;SDS011;58760;48.716;8.962;2022-11-15T06:55:03;5.57;;;2.30;;
71104;SDS011;58760;48.716;8.962;2022-11-15T06:57:29;4.97;;;2.47;;
71104;SDS011;58760;48.716;8.962;2022-11-15T06:59:54;6.10;;;1.90;;
71104;SDS011;58760;48.716;8.962;2022-11-15T07:02:20;5.25;;;2.30;;
71104;SDS011;58760;48.716;8.962;2022-11-15T07:04:45;10.10;;;2.53;;
71104;SDS011;58760;48.716;8.962;2022-11-15T07:07:11;5.95;;;2.38;;
71104;SDS011;58760;48.716;8.962;2022-11-15T07:09:36;6.07;;;2.15;;
71104;SDS011;58760;48.716;8.962;2022-11-15T07:12:01;9.10;;;2.17;;
71104;SDS011;58760;48.716;8.962;2022-11-15T07:14:27;5.45;;;2.30;;
71104;SDS011;58760;48.716;8.962;2022-11-15T07:16:52;4.95;;;2.10;;
71104;SDS011;58760;48.716;8.962;2022-11-15T07:19:17;5.40;;;2.17;;
71104;SDS011;58760;48.716;8.962;2022-11-15T07:21:43;5.38;;;2.28;;
71104;SDS011;58760;48.716;8.962;2022-11-15T07:24:08;6.82;;;2.20;;
71104;SDS011;58760;48.716;8.962;2022-11-15T07:26:34;5.53;;;2.08;;
71104;SDS011;58760;48.716;8.962;2022-11-15T07:28:59;6.13;;;2.40;;
71104;SDS011;58760;48.716;8.962;2022-11-15T07:31:24;6.45;;;2.15;;
71104;SDS011;58760;48.716;8.962;2022-11-15T07:33:50;6.50;;;2.38;;
71104;SDS011;58760;48.716;8.962;2022-11-15T07:36:15;8.18;;;2.25;;
71104;SDS011;58760;48.716;8.962;2022-11-15T07:38:41;5.50;;;2.10;;
71104;SDS011;58760;48.716;8.962;2022-11-15T07:41:07;6.25;;;2.25;;
71104;SDS011;58760;48.716;8.962;2022-11-15T07:43:32;5.88;;;2.28;;
71104;SDS011;58760;48.716;8.962;2022-11-15T07:45:59;7.18;;;2.17;;
71104;SDS011;58760;48.716;8.962;2022-11-15T07:48:30;8.25;;;2.13;;
71104;SDS011;58760;48.716;8.962;2022-11-15T07:50:55;5.10;;;2.10;;
71104;SDS011;58760;48.716;8.962;2022-11-15T07:53:21;4.68;;;1.98;;
71104;SDS011;58760;48.716;8.962;2022-11-15T07:55:46;5.47;;;2.20;;
71104;SDS011;58760;48.716;8.962;2022-11-15T07:58:11;4.97;;;2.10;;
71104;SDS011;58760;48.716;8.962;2022-11-15T08:00:38;5.93;;;2.22;;
71104;SDS011;58760;48.716;8.962;2022-11-15T08:03:10;7.00;;;2.70;;
71104;SDS011;58760;48.716;8.962;2022-11-15T08:05:38;10.82;;;2.50;;
71104;SDS011;58760;48.716;8.962;2022-11-15T08:08:04;6.75;;;2.30;;
71104;SDS011;58760;48.716;8.962;2022-11-15T08:10:30;10.48;;;2.25;;
71104;SDS011;58760;48.716;8.962;2022-11-15T08:12:57;7.03;;;2.40;;
71104;SDS011;58760;48.716;8.962;2022-11-15T08:15:26;10.15;;;2.75;;
71104;SDS011;58760;48.716;8.962;2022-11-15T08:17:56;7.80;;;2.63;;
71104;SDS011;58760;48.716;8.962;2022-11-15T08:20:22;6.55;;;2.55;;
71104;SDS011;58760;48.716;8.962;2022-11-15T08:22:49;11.07;;;3.03;;
71104;SDS011;58760;48.716;8.962;2022-11-15T08:25:14;12.75;;;2.97;;
71104;SDS011;58760;48.716;8.962;2022-11-15T08:27:40;12.45;;;3.20;;
71104;SDS011;58760;48.716;8.962;2022-11-15T08:30:05;9.00;;;3.53;;
71104;SDS011;58760;48.716;8.962;2022-11-15T08:32:31;10.85;;;3.10;;
71104;SDS011;58760;48.716;8.962;2022-11-15T08:34:57;9.52;;;3.15;;
71104;SDS011;58760;48.716;8.962;2022-11-15T08:37:22;12.45;;;2.65;;
71104;SDS011;58760;48.716;8.962;2022-11-15T08:39:47;8.02;;;2.50;;
71104;SDS011;58760;48.716;8.962;2022-11-15T08:42:13;5.80;;;2.50;;
71104;SDS011;58760;48.716;8.962;2022-11-15T08:47:05;7.00;;;2.60;;
71104;SDS011;58760;48.716;8.962;2022-11-15T08:49:30;4.32;;;1.83;;
71104;SDS011;58760;48.716;8.962;2022-11-15T08:51:55;7.55;;;2.50;;
71104;SDS011;58760;48.716;8.962;2022-11-15T08:54:21;7.05;;;2.22;;
71104;SDS011;58760;48.716;8.962;2022-11-15T08:56:46;6.57;;;2.50;;
71104;SDS011;58760;48.716;8.962;2022-11-15T08:59:11;6.22;;;2.50;;
71104;SDS011;58760;48.716;8.962;2022-11-15T09:01:37;6.07;;;2.53;;
71104;SDS011;58760;48.716;8.962;2022-11-15T09:04:02;7.10;;;2.35;;
71104;SDS011;58760;48.716;8.962;2022-11-15T09:06:29;7.93;;;2.33;;
71104;SDS011;58760;48.716;8.962;2022-11-15T09:08:54;6.28;;;2.30;;
71104;SDS011;58760;48.716;8.962;2022-11-15T09:11:20;6.13;;;2.25;;
71104;SDS011;58760;48.716;8.962;2022-11-15T09:13:46;7.07;;;2.38;;
71104;SDS011;58760;48.716;8.962;2022-11-15T09:16:12;7.57;;;2.40;;
71104;SDS011;58760;48.716;8.962;2022-11-15T09:18:37;7.32;;;2.67;;
71104;SDS011;58760;48.716;8.962;2022-11-15T09:21:03;5.68;;;2.22;;
71104;SDS011;58760;48.716;8.962;2022-11-15T09:23:29;6.38;;;2.45;;
71104;SDS011;58760;48.716;8.962;2022-11-15T09:25:58;7.60;;;2.38;;
71104;SDS011;58760;48.716;8.962;2022-11-15T09:28:28;4.80;;;2.15;;
71104;SDS011;58760;48.716;8.962;2022-11-15T09:31:01;5.05;;;2.17;;
71104;SDS011;58760;48.716;8.962;2022-11-15T09:33:28;4.90;;;2.13;;
71104;SDS011;58760;48.716;8.962;2022-11-15T09:35:54;9.70;;;2.25;;
71104;SDS011;58760;48.716;8.962;2022-11-15T09:38:24;7.32;;;2.33;;
71104;SDS011;58760;48.716;8.962;2022-11-15T09:40:50;7.43;;;2.17;;
71104;SDS011;58760;48.716;8.962;2022-11-15T09:46:15;5.57;;;1.90;;
71104;SDS011;58760;48.716;8.962;2022-11-15T09:54:08;9.88;;;3.10;;
71104;SDS011;58760;48.716;8.962;2022-11-15T09:56:41;6.68;;;2.22;;
71104;SDS011;58760;48.716;8.962;2022-11-15T10:04:43;7.22;;;2.35;;
71104;SDS011;58760;48.716;8.962;2022-11-15T10:07:23;6.35;;;2.40;;
71104;SDS011;58760;48.716;8.962;2022-11-15T10:12:34;6.78;;;2.65;;
71104;SDS011;58760;48.716;8.962;2022-11-15T10:15:01;5.47;;;2.20;;
71104;SDS011;58760;48.716;8.962;2022-11-15T10:20:27;6.43;;;2.33;;
71104;SDS011;58760;48.716;8.962;2022-11-15T10:23:01;4.63;;;1.88;;
71104;SDS011;58760;48.716;8.962;2022-11-15T10:25:32;7.25;;;2.20;;
71104;SDS011;58760;48.716;8.962;2022-11-15T10:28:15;5.57;;;2.05;;
71104;SDS011;58760;48.716;8.962;2022-11-15T10:30:47;6.22;;;1.80;;
71104;SDS011;58760;48.716;8.962;2022-11-15T10:35:51;5.50;;;1.80;;
71104;SDS011;58760;48.716;8.962;2022-11-15T10:46:37;5.18;;;1.80;;
71104;SDS011;58760;48.716;8.962;2022-11-15T10:49:20;7.25;;;2.15;;
71104;SDS011;58760;48.716;8.962;2022-11-15T10:51:48;6.50;;;2.42;;
71104;SDS011;58760;48.716;8.962;2022-11-15T10:54:19;7.68;;;1.90;;
71104;SDS011;58760;48.716;8.962;2022-11-15T10:56:50;6.18;;;1.85;;
71104;SDS011;58760;48.716;8.962;2022-11-15T10:59:21;5.75;;;2.28;;
71104;SDS011;58760;48.716;8.962;2022-11-15T11:01:50;6.38;;;1.98;;
71104;SDS011;58760;48.716;8.962;2022-11-15T11:04:16;4.43;;;1.75;;
71104;SDS011;58760;48.716;8.962;2022-11-15T11:06:51;6.50;;;1.70;;
71104;SDS011;58760;48.716;8.962;2022-11-15T11:09:23;4.65;;;1.70;;
71104;SDS011;58760;48.716;8.962;2022-11-15T11:11:58;4.55;;;1.55;;
71104;SDS011;58760;48.716;8.962;2022-11-15T11:22:17;5.80;;;1.80;;
71104;SDS011;58760;48.716;8.962;2022-11-15T11:35:55;4.75;;;1.67;;
71104;SDS011;58760;48.716;8.962;2022-11-15T11:38:50;4.13;;;1.52;;
71104;SDS011;58760;48.716;8.962;2022-11-15T11:46:56;8.25;;;1.85;;
71104;SDS011;58760;48.716;8.962;2022-11-15T11:58:01;6.90;;;1.83;;
71104;SDS011;58760;48.716;8.962;2022-11-15T12:02:42;4.18;;;1.63;;
71104;SDS011;58760;48.716;8.962;2022-11-15T12:05:20;6.30;;;1.88;;
71104;SDS011;58760;48.716;8.962;2022-11-15T12:07:52;5.38;;;1.67;;
71104;SDS011;58760;48.716;8.962;2022-11-15T12:10:25;4.63;;;1.70;;
71104;SDS011;58760;48.716;8.962;2022-11-15T12:12:59;5.75;;;2.13;;
71104;SDS011;58760;48.716;8.962;2022-11-15T12:15:33;10.23;;;1.90;;
71104;SDS011;58760;48.716;8.962;2022-11-15T12:18:04;6.18;;;1.92;;
71104;SDS011;58760;48.716;8.962;2022-11-15T12:20:34;5.68;;;1.85;;
71104;SDS011;58760;48.716;8.962;2022-11-15T12:23:06;7.55;;;1.85;;
71104;SDS011;58760;48.716;8.962;2022-11-15T12:33:42;5.78;;;1.90;;
71104;SDS011;58760;48.716;8.962;2022-11-15T12:36:27;4.22;;;1.75;;
71104;SDS011;58760;48.716;8.962;2022-11-15T12:39:07;4.50;;;1.58;;
71104;SDS011;58760;48.716;8.962;2022-11-15T12:41:38;4.68;;;1.83;;
71104;SDS011;58760;48.716;8.962;2022-11-15T12:44:09;3.17;;;1.40;;
71104;SDS011;58760;48.716;8.962;2022-11-15T13:02:43;11.15;;;2.13;;
71104;SDS011;58760;48.716;8.962;2022-11-15T13:17:48;9.50;;;1.90;;
71104;SDS011;58760;48.716;8.962;2022-11-15T13:25:21;8.70;;;1.92;;
71104;SDS011;58760;48.716;8.962;2022-11-15T13:27:57;5.47;;;1.67;;
71104;SDS011;58760;48.716;8.962;2022-11-15T13:30:24;4.05;;;1.55;;
71104;SDS011;58760;48.716;8.962;2022-11-15T13:32:51;5.40;;;1.85;;
71104;SDS011;58760;48.716;8.962;2022-11-15T13:35:19;4.85;;;1.55;;
71104;SDS011;58760;48.716;8.962;2022-11-15T13:37:46;4.38;;;1.63;;
71104;SDS011;58760;48.716;8.962;2022-11-15T13:42:45;5.65;;;1.73;;
71104;SDS011;58760;48.716;8.962;2022-11-15T13:45:12;4.72;;;1.60;;
71104;SDS011;58760;48.716;8.962;2022-11-15T13:47:40;4.63;;;1.80;;
71104;SDS011;58760;48.716;8.962;2022-11-15T13:50:05;4.60;;;1.70;;
71104;SDS011;58760;48.716;8.962;2022-11-15T13:52:35;5.65;;;1.77;;
71104;SDS011;58760;48.716;8.962;2022-11-15T13:55:14;5.15;;;1.90;;
71104;SDS011;58760;48.716;8.962;2022-11-15T14:03:05;5.22;;;1.92;;
71104;SDS011;58760;48.716;8.962;2022-11-15T14:06:05;6.72;;;1.85;;
71104;SDS011;58760;48.716;8.962;2022-11-15T14:08:37;4.75;;;1.48;;
71104;SDS011;58760;48.716;8.962;2022-11-15T14:11:14;2.22;;;1.17;;
71104;SDS011;58760;48.716;8.962;2022-11-15T14:13:42;2.40;;;1.08;;
71104;SDS011;58760;48.716;8.962;2022-11-15T14:16:32;4.13;;;1.30;;
71104;SDS011;58760;48.716;8.962;2022-11-15T14:19:01;4.90;;;1.38;;
71104;SDS011;58760;48.716;8.962;2022-11-15T14:21:27;4.28;;;1.27;;
71104;SDS011;58760;48.716;8.962;2022-11-15T14:24:13;3.40;;;1.20;;
71104;SDS011;58760;48.716;8.962;2022-11-15T14:26:39;4.18;;;1.30;;
71104;SDS011;58760;48.716;8.962;2022-11-15T14:31:50;3.33;;;1.25;;
71104;SDS011;58760;48.716;8.962;2022-11-15T14:34:15;4.55;;;1.52;;
71104;SDS011;58760;48.716;8.962;2022-11-15T14:36:40;4.97;;;1.42;;
71104;SDS011;58760;48.716;8.962;2022-11-15T14:39:06;4.18;;;1.40;;
71104;SDS011;58760;48.716;8.962;2022-11-15T14:41:34;3.10;;;1.40;;
71104;SDS011;58760;48.716;8.962;2022-11-15T14:44:03;3.97;;;1.35;;
71104;SDS011;58760;48.716;8.962;2022-11-15T14:46:29;4.07;;;1.38;;
71104;SDS011;58760;48.716;8.962;2022-11-15T14:48:55;5.28;;;1.60;;
71104;SDS011;58760;48.716;8.962;2022-11-15T14:51:21;4.88;;;1.58;;
71104;SDS011;58760;48.716;8.962;2022-11-15T14:53:46;5.80;;;1.63;;
71104;SDS011;58760;48.716;8.962;2022-11-15T14:56:12;5.57;;;1.42;;
71104;SDS011;58760;48.716;8.962;2022-11-15T14:58:38;4.63;;;1.35;;
71104;SDS011;58760;48.716;8.962;2022-11-15T15:01:12;5.82;;;1.75;;
71104;SDS011;58760;48.716;8.962;2022-11-15T15:03:49;4.15;;;1.58;;
71104;SDS011;58760;48.716;8.962;2022-11-15T15:06:16;5.32;;;1.30;;
71104;SDS011;58760;48.716;8.962;2022-11-15T15:08:42;5.20;;;1.60;;
71104;SDS011;58760;48.716;8.962;2022-11-15T15:11:11;5.05;;;1.58;;
71104;SDS011;58760;48.716;8.962;2022-11-15T15:13:40;5.00;;;1.63;;
71104;SDS011;58760;48.716;8.962;2022-11-15T15:16:05;5.70;;;1.92;;
71104;SDS011;58760;48.716;8.962;2022-11-15T15:18:30;5.90;;;1.75;;
71104;SDS011;58760;48.716;8.962;2022-11-15T15:20:57;7.25;;;1.70;;
71104;SDS011;58760;48.716;8.962;2022-11-15T15:23:32;3.50;;;1.38;;
71104;SDS011;58760;48.716;8.962;2022-11-15T15:25:58;4.90;;;1.50;;
71104;SDS011;58760;48.716;8.962;2022-11-15T15:28:23;4.85;;;1.50;;
71104;SDS011;58760;48.716;8.962;2022-11-15T15:30:48;5.82;;;1.85;;
71104;SDS011;58760;48.716;8.962;2022-11-15T15:33:14;4.20;;;1.50;;
71104;SDS011;58760;48.716;8.962;2022-11-15T15:35:40;5.35;;;1.70;;
71104;SDS011;58760;48.716;8.962;2022-11-15T15:38:06;4.97;;;1.70;;
71104;SDS011;58760;48.716;8.962;2022-11-15T15:40:34;3.88;;;1.58;;
71104;SDS011;58760;48.716;8.962;2022-11-15T15:42:59;5.25;;;1.63;;
71104;SDS011;58760;48.716;8.962;2022-11-15T15:45:25;6.93;;;1.90;;
71104;SDS011;58760;48.716;8.962;2022-11-15T15:47:52;3.58;;;1.33;;
71104;SDS011;58760;48.716;8.962;2022-11-15T15:50:20;4.85;;;1.73;;
71104;SDS011;58760;48.716;8.962;2022-11-15T15:52:48;4.78;;;1.60;;
71104;SDS011;58760;48.716;8.962;2022-11-15T15:55:15;4.80;;;1.90;;
71104;SDS011;58760;48.716;8.962;2022-11-15T15:57:40;6.05;;;2.10;;
71104;SDS011;58760;48.716;8.962;2022-11-15T16:00:06;6.53;;;2.10;;
71104;SDS011;58760;48.716;8.962;2022-11-15T16:02:32;5.43;;;2.30;;
71104;SDS011;58760;48.716;8.962;2022-11-15T16:04:57;4.40;;;1.58;;
71104;SDS011;58760;48.716;8.962;2022-11-15T16:07:23;4.85;;;1.60;;
71104;SDS011;58760;48.716;8.962;2022-11-15T16:09:48;4.93;;;1.60;;
71104;SDS011;58760;48.716;8.962;2022-11-15T16:12:30;5.75;;;1.80;;
71104;SDS011;58760;48.716;8.962;2022-11-15T16:14:57;5.90;;;2.17;;
71104;SDS011;58760;48.716;8.962;2022-11-15T16:17:27;10.07;;;2.40;;
71104;SDS011;58760;48.716;8.962;2022-11-15T16:19:55;7.03;;;2.17;;
71104;SDS011;58760;48.716;8.962;2022-11-15T16:22:21;6.53;;;2.28;;
71104;SDS011;58760;48.716;8.962;2022-11-15T16:24:46;4.72;;;1.95;;
71104;SDS011;58760;48.716;8.962;2022-11-15T16:27:15;5.43;;;1.90;;
71104;SDS011;58760;48.716;8.962;2022-11-15T16:29:42;6.78;;;2.00;;
71104;SDS011;58760;48.716;8.962;2022-11-15T16:32:08;3.80;;;1.80;;
71104;SDS011;58760;48.716;8.962;2022-11-15T16:34:34;7.50;;;2.30;;
71104;SDS011;58760;48.716;8.962;2022-11-15T16:36:59;5.47;;;2.17;;
71104;SDS011;58760;48.716;8.962;2022-11-15T16:39:24;5.55;;;2.17;;
71104;SDS011;58760;48.716;8.962;2022-11-15T16:41:50;8.32;;;2.40;;
71104;SDS011;58760;48.716;8.962;2022-11-15T16:44:15;7.20;;;2.25;;
71104;SDS011;58760;48.716;8.962;2022-11-15T16:46:41;8.13;;;2.50;;
71104;SDS011;58760;48.716;8.962;2022-11-15T16:51:37;6.30;;;2.08;;
71104;SDS011;58760;48.716;8.962;2022-11-15T16:54:03;7.00;;;2.53;;
71104;SDS011;58760;48.716;8.962;2022-11-15T16:56:29;6.55;;;2.35;;
71104;SDS011;58760;48.716;8.962;2022-11-15T16:58:55;6.32;;;2.20;;
71104;SDS011;58760;48.716;8.962;2022-11-15T17:01:23;4.97;;;2.15;;
71104;SDS011;58760;48.716;8.962;2022-11-15T17:03:50;5.53;;;2.33;;
71104;SDS011;58760;48.716;8.962;2022-11-15T17:06:15;6.85;;;2.38;;
71104;SDS011;58760;48.716;8.962;2022-11-15T17:08:42;5.63;;;2.35;;
71104;SDS011;58760;48.716;8.962;2022-11-15T17:11:08;5.75;;;2.50;;
71104;SDS011;58760;48.716;8.962;2022-11-15T17:13:35;6.03;;;2.42;;
71104;SDS011;58760;48.716;8.962;2022-11-15T17:16:07;6.15;;;2.42;;
71104;SDS011;58760;48.716;8.962;2022-11-15T17:18:37;9.50;;;2.90;;
71104;SDS011;58760;48.716;8.962;2022-11-15T17:21:07;6.53;;;2.60;;